PWSweather.com
Personal Weather Stations
Station Observations
BNUMANCIA
BarcelonaES 08029

BarcelonaES 08029

Lat: 41.3855863, Lon: 2.1367624

Elevation: 46

Station Type: WMR180

High Low Average
Temperature 80.2°F26.8°F 52.2°F11.2°F 64.0°F17.8°F
Dew Point 52.3°F11.3°F -19.5°F-28.6°F 27.1°F-2.7°F
Winds 13.0 mph SSW20.9 mph SSW Calm Calm 3.4 mph 5.5 mph
Wind Gusts 14.1 mph22.7 mph -- 4.4 mph7.1 mph
Humidity 73% 2% 35%
Pressure 30.18 in1022.00 in 30.03 in1016.90 in -
Precipitation 0.00 in0.00 in - -
Hour Temp Dew Point Humidity Winds Wind Gusts Pressure Precip Precip Rate Daily Precip Total
12:04 AM 57.2°F14.0°C 39.8°F4.3°C 52% 2.9 mph W4.7 kmh W 3.6 mph5.8 kmh 30.15 in1021.0 mb 0.00 in0.0 mm 0.00 in0.0 mm 0.00 in0.0 mm
12:09 AM 57.2°F14.0°C 40.2°F4.6°C 53% Calm Calm 2.5 mph4.0 kmh 30.15 in1021.0 mb 0.00 in0.0 mm 0.00 in0.0 mm 0.00 in0.0 mm
12:13 AM 57.2°F14.0°C 40.2°F4.6°C 53% 3.6 mph WSW5.8 kmh WSW 3.6 mph5.8 kmh 30.15 in1021.0 mb 0.00 in0.0 mm 0.00 in0.0 mm 0.00 in0.0 mm
12:19 AM 57.2°F14.0°C 40.2°F4.6°C 53% 2.9 mph WSW4.7 kmh WSW 2.9 mph4.7 kmh 30.15 in1021.0 mb 0.00 in0.0 mm 0.00 in0.0 mm 0.00 in0.0 mm
12:24 AM 57.2°F14.0°C 40.2°F4.6°C 53% Calm Calm 2.9 mph4.7 kmh 30.15 in1021.0 mb 0.00 in0.0 mm 0.00 in0.0 mm 0.00 in0.0 mm
12:28 AM 57.2°F14.0°C 40.2°F4.6°C 53% Calm Calm -- 30.15 in1021.0 mb 0.00 in0.0 mm 0.00 in0.0 mm 0.00 in0.0 mm
12:34 AM 57.0°F13.9°C 40.6°F4.8°C 54% Calm Calm 2.0 mph3.2 kmh 30.15 in1021.0 mb 0.00 in0.0 mm 0.00 in0.0 mm 0.00 in0.0 mm
12:40 AM 56.8°F13.8°C 40.4°F4.7°C 54% Calm Calm 0.9 mph1.4 kmh 30.15 in1021.0 mb 0.00 in0.0 mm 0.00 in0.0 mm 0.00 in0.0 mm
12:45 AM 56.8°F13.8°C 40.4°F4.7°C 54% Calm Calm 1.3 mph2.1 kmh 30.15 in1021.0 mb 0.00 in0.0 mm 0.00 in0.0 mm 0.00 in0.0 mm
12:50 AM 56.7°F13.7°C 40.7°F4.8°C 55% 2.2 mph WSW3.5 kmh WSW 3.1 mph5.0 kmh 30.15 in1021.0 mb 0.00 in0.0 mm 0.00 in0.0 mm 0.00 in0.0 mm
12:54 AM 56.7°F13.7°C 40.7°F4.8°C 55% 1.3 mph WSW2.1 kmh WSW 2.9 mph4.7 kmh 30.15 in1021.0 mb 0.00 in0.0 mm 0.00 in0.0 mm 0.00 in0.0 mm
12:59 AM 56.7°F13.7°C 41.2°F5.1°C 56% 2.0 mph WSW3.2 kmh WSW 5.8 mph9.3 kmh 30.15 in1021.0 mb 0.00 in0.0 mm 0.00 in0.0 mm 0.00 in0.0 mm
01:04 AM 56.7°F13.7°C 41.2°F5.1°C 56% 2.0 mph WSW3.2 kmh WSW 4.7 mph7.6 kmh 30.15 in1021.0 mb 0.00 in0.0 mm 0.00 in0.0 mm 0.00 in0.0 mm
01:08 AM 56.5°F13.6°C 40.5°F4.7°C 55% Calm Calm 4.3 mph6.9 kmh 30.15 in1021.0 mb 0.00 in0.0 mm 0.00 in0.0 mm 0.00 in0.0 mm
01:13 AM 56.3°F13.5°C 40.4°F4.7°C 55% Calm Calm 2.9 mph4.7 kmh 30.15 in1021.0 mb 0.00 in0.0 mm 0.00 in0.0 mm 0.00 in0.0 mm
01:19 AM 56.1°F13.4°C 39.7°F4.3°C 54% 2.2 mph W3.5 kmh W 2.9 mph4.7 kmh 30.15 in1021.0 mb 0.00 in0.0 mm 0.00 in0.0 mm 0.00 in0.0 mm
01:24 AM 55.9°F13.3°C 39.6°F4.2°C 54% 1.6 mph WSW2.6 kmh WSW 3.1 mph5.0 kmh 30.12 in1020.0 mb 0.00 in0.0 mm 0.00 in0.0 mm 0.00 in0.0 mm
01:29 AM 55.9°F13.3°C 39.1°F3.9°C 53% 2.2 mph WSW3.5 kmh WSW 4.3 mph6.9 kmh 30.12 in1020.0 mb 0.00 in0.0 mm 0.00 in0.0 mm 0.00 in0.0 mm
01:34 AM 55.9°F13.3°C 39.1°F3.9°C 53% 3.4 mph W5.5 kmh W 3.4 mph5.5 kmh 30.12 in1020.0 mb 0.00 in0.0 mm 0.00 in0.0 mm 0.00 in0.0 mm
01:40 AM 55.9°F13.3°C 38.1°F3.4°C 51% Calm Calm 3.4 mph5.5 kmh 30.12 in1020.0 mb 0.00 in0.0 mm 0.00 in0.0 mm 0.00 in0.0 mm
01:45 AM 55.9°F13.3°C 37.1°F2.8°C 49% 2.0 mph WSW3.2 kmh WSW 4.3 mph6.9 kmh 30.12 in1020.0 mb 0.00 in0.0 mm 0.00 in0.0 mm 0.00 in0.0 mm
01:50 AM 55.8°F13.2°C 35.9°F2.2°C 47% 4.0 mph W6.4 kmh W 4.0 mph6.4 kmh 30.12 in1020.0 mb 0.00 in0.0 mm 0.00 in0.0 mm 0.00 in0.0 mm
01:54 AM 55.8°F13.2°C 35.3°F1.8°C 46% 2.7 mph WNW4.3 kmh WNW 4.0 mph6.4 kmh 30.12 in1020.0 mb 0.00 in0.0 mm 0.00 in0.0 mm 0.00 in0.0 mm
01:59 AM 55.8°F13.2°C 34.2°F1.2°C 44% 3.6 mph W5.8 kmh W 4.0 mph6.4 kmh 30.12 in1020.0 mb 0.00 in0.0 mm 0.00 in0.0 mm 0.00 in0.0 mm
02:04 AM 55.6°F13.1°C 33.5°F0.8°C 43% 2.5 mph W4.0 kmh W 3.6 mph5.8 kmh 30.12 in1020.0 mb 0.00 in0.0 mm 0.00 in0.0 mm 0.00 in0.0 mm
02:09 AM 55.4°F13.0°C 33.3°F0.7°C 43% 1.6 mph WNW2.6 kmh WNW 3.8 mph6.1 kmh 30.12 in1020.0 mb 0.00 in0.0 mm 0.00 in0.0 mm 0.00 in0.0 mm
02:14 AM 55.4°F13.0°C 33.3°F0.7°C 43% 5.4 mph WSW8.7 kmh WSW 5.8 mph9.3 kmh 30.12 in1020.0 mb 0.00 in0.0 mm 0.00 in0.0 mm 0.00 in0.0 mm
02:19 AM 55.2°F12.9°C 33.1°F0.6°C 43% 3.4 mph W5.5 kmh W 6.0 mph9.7 kmh 30.12 in1020.0 mb 0.00 in0.0 mm 0.00 in0.0 mm 0.00 in0.0 mm
02:24 AM 55.0°F12.8°C 33.0°F0.6°C 43% 3.1 mph WNW5.0 kmh WNW 6.0 mph9.7 kmh 30.12 in1020.0 mb 0.00 in0.0 mm 0.00 in0.0 mm 0.00 in0.0 mm
02:29 AM 54.7°F12.6°C 32.1°F0.1°C 42% 6.5 mph W10.5 kmh W 6.5 mph10.5 kmh 30.12 in1020.0 mb 0.00 in0.0 mm 0.00 in0.0 mm 0.00 in0.0 mm
02:34 AM 54.7°F12.6°C 31.5°F-0.3°C 41% Calm Calm 2.7 mph4.3 kmh 30.12 in1020.0 mb 0.00 in0.0 mm 0.00 in0.0 mm 0.00 in0.0 mm
02:40 AM 54.7°F12.6°C 31.5°F-0.3°C 41% 3.6 mph WSW5.8 kmh WSW 3.6 mph5.8 kmh 30.12 in1020.0 mb 0.00 in0.0 mm 0.00 in0.0 mm 0.00 in0.0 mm
02:45 AM 54.7°F12.6°C 30.9°F-0.6°C 40% 4.9 mph W7.9 kmh W 4.9 mph7.9 kmh 30.12 in1020.0 mb 0.00 in0.0 mm 0.00 in0.0 mm 0.00 in0.0 mm
02:50 AM 54.7°F12.6°C 30.2°F-1.0°C 39% 2.2 mph WNW3.5 kmh WNW 4.9 mph7.9 kmh 30.12 in1020.0 mb 0.00 in0.0 mm 0.00 in0.0 mm 0.00 in0.0 mm
02:54 AM 54.7°F12.6°C 30.2°F-1.0°C 39% 1.3 mph WSW2.1 kmh WSW 3.1 mph5.0 kmh 30.12 in1020.0 mb 0.00 in0.0 mm 0.00 in0.0 mm 0.00 in0.0 mm
02:59 AM 54.5°F12.5°C 30.1°F-1.1°C 39% 3.1 mph SSW5.0 kmh SSW 6.5 mph10.5 kmh 30.12 in1020.0 mb 0.00 in0.0 mm 0.00 in0.0 mm 0.00 in0.0 mm
03:04 AM 54.5°F12.5°C 30.1°F-1.1°C 39% 2.0 mph WNW3.2 kmh WNW 3.8 mph6.1 kmh 30.12 in1020.0 mb 0.00 in0.0 mm 0.00 in0.0 mm 0.00 in0.0 mm
03:09 AM 54.5°F12.5°C 29.4°F-1.4°C 38% 3.8 mph W6.1 kmh W 4.9 mph7.9 kmh 30.12 in1020.0 mb 0.00 in0.0 mm 0.00 in0.0 mm 0.00 in0.0 mm
03:14 AM 54.5°F12.5°C 29.4°F-1.4°C 38% Calm Calm 4.3 mph6.9 kmh 30.12 in1020.0 mb 0.00 in0.0 mm 0.00 in0.0 mm 0.00 in0.0 mm
03:19 AM 54.5°F12.5°C 29.4°F-1.4°C 38% 2.9 mph W4.7 kmh W 2.9 mph4.7 kmh 30.12 in1020.0 mb 0.00 in0.0 mm 0.00 in0.0 mm 0.00 in0.0 mm
03:24 AM 54.7°F12.6°C 29.6°F-1.3°C 38% 4.3 mph W6.9 kmh W 4.3 mph6.9 kmh 30.12 in1020.0 mb 0.00 in0.0 mm 0.00 in0.0 mm 0.00 in0.0 mm
03:29 AM 54.7°F12.6°C 29.6°F-1.3°C 38% 1.1 mph NW1.8 kmh NW 5.6 mph9.0 kmh 30.12 in1020.0 mb 0.00 in0.0 mm 0.00 in0.0 mm 0.00 in0.0 mm
03:34 AM 54.7°F12.6°C 28.9°F-1.7°C 37% 5.4 mph NE8.7 kmh NE 5.4 mph8.7 kmh 30.12 in1020.0 mb 0.00 in0.0 mm 0.00 in0.0 mm 0.00 in0.0 mm
03:40 AM 54.7°F12.6°C 29.6°F-1.3°C 38% Calm Calm 2.0 mph3.2 kmh 30.12 in1020.0 mb 0.00 in0.0 mm 0.00 in0.0 mm 0.00 in0.0 mm
03:45 AM 54.5°F12.5°C 28.8°F-1.8°C 37% 1.6 mph NW2.6 kmh NW 3.6 mph5.8 kmh 30.12 in1020.0 mb 0.00 in0.0 mm 0.00 in0.0 mm 0.00 in0.0 mm
03:50 AM 54.5°F12.5°C 28.8°F-1.8°C 37% 3.8 mph WSW6.1 kmh WSW 3.8 mph6.1 kmh 30.12 in1020.0 mb 0.00 in0.0 mm 0.00 in0.0 mm 0.00 in0.0 mm
03:54 AM 54.5°F12.5°C 28.8°F-1.8°C 37% 3.6 mph W5.8 kmh W 3.8 mph6.1 kmh 30.12 in1020.0 mb 0.00 in0.0 mm 0.00 in0.0 mm 0.00 in0.0 mm
03:59 AM 54.5°F12.5°C 28.8°F-1.8°C 37% Calm Calm 4.3 mph6.9 kmh 30.12 in1020.0 mb 0.00 in0.0 mm 0.00 in0.0 mm 0.00 in0.0 mm
04:04 AM 54.5°F12.5°C 28.8°F-1.8°C 37% 3.8 mph W6.1 kmh W 6.5 mph10.5 kmh 30.12 in1020.0 mb 0.00 in0.0 mm 0.00 in0.0 mm 0.00 in0.0 mm
04:09 AM 54.5°F12.5°C 28.8°F-1.8°C 37% 1.1 mph NNW1.8 kmh NNW 3.8 mph6.1 kmh 30.12 in1020.0 mb 0.00 in0.0 mm 0.00 in0.0 mm 0.00 in0.0 mm
04:14 AM 54.5°F12.5°C 28.8°F-1.8°C 37% 10.5 mph W16.9 kmh W 10.5 mph16.9 kmh 30.12 in1020.0 mb 0.00 in0.0 mm 0.00 in0.0 mm 0.00 in0.0 mm
04:19 AM 54.5°F12.5°C 28.8°F-1.8°C 37% 7.2 mph SSW11.6 kmh SSW 14.1 mph22.7 kmh 30.12 in1020.0 mb 0.00 in0.0 mm 0.00 in0.0 mm 0.00 in0.0 mm
04:24 AM 54.3°F12.4°C 28.6°F-1.9°C 37% 4.9 mph W7.9 kmh W 8.7 mph14.0 kmh 30.12 in1020.0 mb 0.00 in0.0 mm 0.00 in0.0 mm 0.00 in0.0 mm
04:29 AM 54.3°F12.4°C 28.6°F-1.9°C 37% 3.1 mph WSW5.0 kmh WSW 9.8 mph15.8 kmh 30.12 in1020.0 mb 0.00 in0.0 mm 0.00 in0.0 mm 0.00 in0.0 mm
04:34 AM 54.3°F12.4°C 28.6°F-1.9°C 37% Calm Calm 5.8 mph9.3 kmh 30.12 in1020.0 mb 0.00 in0.0 mm 0.00 in0.0 mm 0.00 in0.0 mm
04:40 AM 54.1°F12.3°C 28.5°F-1.9°C 37% 2.9 mph WSW4.7 kmh WSW 3.6 mph5.8 kmh 30.12 in1020.0 mb 0.00 in0.0 mm 0.00 in0.0 mm 0.00 in0.0 mm
04:45 AM 54.1°F12.3°C 28.5°F-1.9°C 37% 4.3 mph WSW6.9 kmh WSW 6.0 mph9.7 kmh 30.12 in1020.0 mb 0.00 in0.0 mm 0.00 in0.0 mm 0.00 in0.0 mm
04:50 AM 54.0°F12.2°C 28.3°F-2.1°C 37% 4.0 mph NW6.4 kmh NW 4.3 mph6.9 kmh 30.12 in1020.0 mb 0.00 in0.0 mm 0.00 in0.0 mm 0.00 in0.0 mm
04:54 AM 53.8°F12.1°C 28.1°F-2.2°C 37% 1.1 mph WSW1.8 kmh WSW 4.0 mph6.4 kmh 30.12 in1020.0 mb 0.00 in0.0 mm 0.00 in0.0 mm 0.00 in0.0 mm
04:59 AM 53.4°F11.9°C 28.5°F-1.9°C 38% 1.3 mph WSW2.1 kmh WSW 8.1 mph13.0 kmh 30.12 in1020.0 mb 0.00 in0.0 mm 0.00 in0.0 mm 0.00 in0.0 mm
05:04 AM 53.4°F11.9°C 28.5°F-1.9°C 38% 1.6 mph W2.6 kmh W 7.8 mph12.6 kmh 30.12 in1020.0 mb 0.00 in0.0 mm 0.00 in0.0 mm 0.00 in0.0 mm
05:09 AM 53.2°F11.8°C 28.3°F-2.1°C 38% 9.8 mph W15.8 kmh W 10.1 mph16.3 kmh 30.12 in1020.0 mb 0.00 in0.0 mm 0.00 in0.0 mm 0.00 in0.0 mm
05:14 AM 53.1°F11.7°C 28.2°F-2.1°C 38% 5.6 mph W9.0 kmh W 12.5 mph20.1 kmh 30.12 in1020.0 mb 0.00 in0.0 mm 0.00 in0.0 mm 0.00 in0.0 mm
05:19 AM 53.1°F11.7°C 28.2°F-2.1°C 38% 6.0 mph WSW9.7 kmh WSW 8.1 mph13.0 kmh 30.12 in1020.0 mb 0.00 in0.0 mm 0.00 in0.0 mm 0.00 in0.0 mm
05:24 AM 53.1°F11.7°C 28.2°F-2.1°C 38% 4.9 mph WNW7.9 kmh WNW 6.0 mph9.7 kmh 30.12 in1020.0 mb 0.00 in0.0 mm 0.00 in0.0 mm 0.00 in0.0 mm
05:29 AM 53.1°F11.7°C 28.2°F-2.1°C 38% 8.7 mph WNW14.0 kmh WNW 8.7 mph14.0 kmh 30.12 in1020.0 mb 0.00 in0.0 mm 0.00 in0.0 mm 0.00 in0.0 mm
05:33 AM 52.9°F11.6°C 28.0°F-2.2°C 38% 3.6 mph NW5.8 kmh NW 8.7 mph14.0 kmh 30.12 in1020.0 mb 0.00 in0.0 mm 0.00 in0.0 mm 0.00 in0.0 mm
05:40 AM 52.3°F11.3°C 28.1°F-2.2°C 39% 5.8 mph NW9.3 kmh NW 5.8 mph9.3 kmh 30.12 in1020.0 mb 0.00 in0.0 mm 0.00 in0.0 mm 0.00 in0.0 mm
05:45 AM 52.2°F11.2°C 28.0°F-2.2°C 39% 5.8 mph NW9.3 kmh NW 5.8 mph9.3 kmh 30.12 in1020.0 mb 0.00 in0.0 mm 0.00 in0.0 mm 0.00 in0.0 mm
05:50 AM 52.3°F11.3°C 28.1°F-2.2°C 39% 5.8 mph NW9.3 kmh NW 5.8 mph9.3 kmh 30.12 in1020.0 mb 0.00 in0.0 mm 0.00 in0.0 mm 0.00 in0.0 mm
05:55 AM 52.3°F11.3°C 28.1°F-2.2°C 39% 5.8 mph NW9.3 kmh NW 5.8 mph9.3 kmh 30.12 in1020.0 mb 0.00 in0.0 mm 0.00 in0.0 mm 0.00 in0.0 mm
05:59 AM 52.5°F11.4°C 28.3°F-2.1°C 39% 5.8 mph NW9.3 kmh NW 5.8 mph9.3 kmh 30.12 in1020.0 mb 0.00 in0.0 mm 0.00 in0.0 mm 0.00 in0.0 mm
06:04 AM 52.9°F11.6°C 28.6°F-1.9°C 39% 7.6 mph E12.2 kmh E 7.6 mph12.2 kmh 30.12 in1020.0 mb 0.00 in0.0 mm 0.00 in0.0 mm 0.00 in0.0 mm
06:09 AM 52.9°F11.6°C 28.6°F-1.9°C 39% 6.0 mph W9.7 kmh W 7.6 mph12.2 kmh 30.12 in1020.0 mb 0.00 in0.0 mm 0.00 in0.0 mm 0.00 in0.0 mm
06:14 AM 52.7°F11.5°C 28.5°F-1.9°C 39% 6.0 mph W9.7 kmh W 6.0 mph9.7 kmh 30.12 in1020.0 mb 0.00 in0.0 mm 0.00 in0.0 mm 0.00 in0.0 mm
06:19 AM 52.5°F11.4°C 28.3°F-2.1°C 39% 7.6 mph WSW12.2 kmh WSW 7.6 mph12.2 kmh 30.12 in1020.0 mb 0.00 in0.0 mm 0.00 in0.0 mm 0.00 in0.0 mm
06:24 AM 52.5°F11.4°C 28.3°F-2.1°C 39% 8.5 mph W13.7 kmh W 8.5 mph13.7 kmh 30.12 in1020.0 mb 0.00 in0.0 mm 0.00 in0.0 mm 0.00 in0.0 mm
06:29 AM 52.5°F11.4°C 28.3°F-2.1°C 39% 8.5 mph W13.7 kmh W 8.5 mph13.7 kmh 30.12 in1020.0 mb 0.00 in0.0 mm 0.00 in0.0 mm 0.00 in0.0 mm
06:34 AM 52.3°F11.3°C 28.1°F-2.2°C 39% 4.0 mph SSE6.4 kmh SSE 8.5 mph13.7 kmh 30.12 in1020.0 mb 0.00 in0.0 mm 0.00 in0.0 mm 0.00 in0.0 mm
06:40 AM 52.3°F11.3°C 28.1°F-2.2°C 39% 2.5 mph WSW4.0 kmh WSW 8.7 mph14.0 kmh 30.12 in1020.0 mb 0.00 in0.0 mm 0.00 in0.0 mm 0.00 in0.0 mm
06:45 AM 52.3°F11.3°C 28.8°F-1.8°C 40% 2.5 mph WSW4.0 kmh WSW 2.5 mph4.0 kmh 30.12 in1020.0 mb 0.00 in0.0 mm 0.00 in0.0 mm 0.00 in0.0 mm
06:50 AM 52.5°F11.4°C 28.9°F-1.7°C 40% 8.1 mph WSW13.0 kmh WSW 8.1 mph13.0 kmh 30.12 in1020.0 mb 0.00 in0.0 mm 0.00 in0.0 mm 0.00 in0.0 mm
06:55 AM 52.7°F11.5°C 29.1°F-1.6°C 40% 8.1 mph WSW13.0 kmh WSW 8.1 mph13.0 kmh 30.15 in1021.0 mb 0.00 in0.0 mm 0.00 in0.0 mm 0.00 in0.0 mm
06:59 AM 52.9°F11.6°C 29.2°F-1.6°C 40% 1.6 mph W2.6 kmh W 8.1 mph13.0 kmh 30.15 in1021.0 mb 0.00 in0.0 mm 0.00 in0.0 mm 0.00 in0.0 mm
07:04 AM 52.9°F11.6°C 29.2°F-1.6°C 40% 1.6 mph W2.6 kmh W 1.6 mph2.6 kmh 30.15 in1021.0 mb 0.00 in0.0 mm 0.00 in0.0 mm 0.00 in0.0 mm
07:09 AM 53.1°F11.7°C 29.4°F-1.4°C 40% Calm Calm 1.6 mph2.6 kmh 30.15 in1021.0 mb 0.00 in0.0 mm 0.00 in0.0 mm 0.00 in0.0 mm
07:14 AM 53.2°F11.8°C 29.6°F-1.3°C 40% 1.6 mph NE2.6 kmh NE 3.4 mph5.5 kmh 30.15 in1021.0 mb 0.00 in0.0 mm 0.00 in0.0 mm 0.00 in0.0 mm
07:19 AM 53.6°F12.0°C 29.3°F-1.5°C 39% 4.7 mph W7.6 kmh W 4.7 mph7.6 kmh 30.15 in1021.0 mb 0.00 in0.0 mm 0.00 in0.0 mm 0.00 in0.0 mm
07:24 AM 53.8°F12.1°C 29.4°F-1.4°C 39% 4.7 mph W7.6 kmh W 4.7 mph7.6 kmh 30.15 in1021.0 mb 0.00 in0.0 mm 0.00 in0.0 mm 0.00 in0.0 mm
07:29 AM 54.3°F12.4°C 29.9°F-1.2°C 39% 4.7 mph W7.6 kmh W 4.7 mph7.6 kmh 30.15 in1021.0 mb 0.00 in0.0 mm 0.00 in0.0 mm 0.00 in0.0 mm
07:34 AM 54.5°F12.5°C 30.1°F-1.1°C 39% 4.7 mph W7.6 kmh W 4.7 mph7.6 kmh 30.15 in1021.0 mb 0.00 in0.0 mm 0.00 in0.0 mm 0.00 in0.0 mm
07:39 AM 54.9°F12.7°C 30.4°F-0.9°C 39% 4.7 mph W7.6 kmh W 4.7 mph7.6 kmh 30.12 in1020.0 mb 0.00 in0.0 mm 0.00 in0.0 mm 0.00 in0.0 mm
07:45 AM 55.2°F12.9°C 30.7°F-0.7°C 39% 4.7 mph W7.6 kmh W 4.7 mph7.6 kmh 30.12 in1020.0 mb 0.00 in0.0 mm 0.00 in0.0 mm 0.00 in0.0 mm
07:49 AM 55.2°F12.9°C 30.7°F-0.7°C 39% 13.0 mph SSW20.9 kmh SSW 13.0 mph20.9 kmh 30.12 in1020.0 mb 0.00 in0.0 mm 0.00 in0.0 mm 0.00 in0.0 mm
07:55 AM 55.2°F12.9°C 30.7°F-0.7°C 39% 13.0 mph SSW20.9 kmh SSW 13.0 mph20.9 kmh 30.12 in1020.0 mb 0.00 in0.0 mm 0.00 in0.0 mm 0.00 in0.0 mm
07:59 AM 55.6°F13.1°C 30.4°F-0.9°C 38% 13.0 mph SSW20.9 kmh SSW 13.0 mph20.9 kmh 30.12 in1020.0 mb 0.00 in0.0 mm 0.00 in0.0 mm 0.00 in0.0 mm
08:04 AM 55.8°F13.2°C 30.6°F-0.8°C 38% 13.0 mph SSW20.9 kmh SSW 13.0 mph20.9 kmh 30.12 in1020.0 mb 0.00 in0.0 mm 0.00 in0.0 mm 0.00 in0.0 mm
08:09 AM 55.8°F13.2°C 30.6°F-0.8°C 38% 13.0 mph SSW20.9 kmh SSW 13.0 mph20.9 kmh 30.12 in1020.0 mb 0.00 in0.0 mm 0.00 in0.0 mm 0.00 in0.0 mm
08:14 AM 55.8°F13.2°C 30.6°F-0.8°C 38% 13.0 mph SSW20.9 kmh SSW 13.0 mph20.9 kmh 30.12 in1020.0 mb 0.00 in0.0 mm 0.00 in0.0 mm 0.00 in0.0 mm
08:19 AM 55.9°F13.3°C 30.7°F-0.7°C 38% 13.0 mph SSW20.9 kmh SSW 13.0 mph20.9 kmh 30.12 in1020.0 mb 0.00 in0.0 mm 0.00 in0.0 mm 0.00 in0.0 mm
08:24 AM 56.1°F13.4°C 30.9°F-0.6°C 38% 4.0 mph ENE6.4 kmh ENE 13.0 mph20.9 kmh 30.12 in1020.0 mb 0.00 in0.0 mm 0.00 in0.0 mm 0.00 in0.0 mm
08:29 AM 56.3°F13.5°C 31.0°F-0.6°C 38% 4.0 mph ENE6.4 kmh ENE 4.0 mph6.4 kmh 30.12 in1020.0 mb 0.00 in0.0 mm 0.00 in0.0 mm 0.00 in0.0 mm
08:34 AM 56.7°F13.7°C 31.4°F-0.3°C 38% 4.0 mph ENE6.4 kmh ENE 4.0 mph6.4 kmh 30.12 in1020.0 mb 0.00 in0.0 mm 0.00 in0.0 mm 0.00 in0.0 mm
08:39 AM 57.0°F13.9°C 31.7°F-0.2°C 38% 4.0 mph ENE6.4 kmh ENE 4.0 mph6.4 kmh 30.12 in1020.0 mb 0.00 in0.0 mm 0.00 in0.0 mm 0.00 in0.0 mm
08:44 AM 57.2°F14.0°C 31.2°F-0.4°C 37% 4.0 mph ENE6.4 kmh ENE 4.0 mph6.4 kmh 30.12 in1020.0 mb 0.00 in0.0 mm 0.00 in0.0 mm 0.00 in0.0 mm
08:50 AM 57.4°F14.1°C 31.3°F-0.4°C 37% 4.0 mph ENE6.4 kmh ENE 4.0 mph6.4 kmh 30.12 in1020.0 mb 0.00 in0.0 mm 0.00 in0.0 mm 0.00 in0.0 mm
08:55 AM 57.4°F14.1°C 31.3°F-0.4°C 37% 6.0 mph SW9.7 kmh SW 6.0 mph9.7 kmh 30.12 in1020.0 mb 0.00 in0.0 mm 0.00 in0.0 mm 0.00 in0.0 mm
08:59 AM 57.7°F14.3°C 31.7°F-0.2°C 37% 6.0 mph SW9.7 kmh SW 6.0 mph9.7 kmh 30.12 in1020.0 mb 0.00 in0.0 mm 0.00 in0.0 mm 0.00 in0.0 mm
09:04 AM 58.1°F14.5°C 32.0°F0.0°C 37% 6.0 mph SW9.7 kmh SW 6.0 mph9.7 kmh 30.12 in1020.0 mb 0.00 in0.0 mm 0.00 in0.0 mm 0.00 in0.0 mm
09:09 AM 58.3°F14.6°C 32.2°F0.1°C 37% 6.0 mph SW9.7 kmh SW 6.0 mph9.7 kmh 30.12 in1020.0 mb 0.00 in0.0 mm 0.00 in0.0 mm 0.00 in0.0 mm
09:14 AM 58.6°F14.8°C 32.5°F0.3°C 37% 6.0 mph SW9.7 kmh SW 6.0 mph9.7 kmh 30.12 in1020.0 mb 0.00 in0.0 mm 0.00 in0.0 mm 0.00 in0.0 mm
09:19 AM 59.2°F15.1°C 32.3°F0.2°C 36% 6.0 mph SW9.7 kmh SW 6.0 mph9.7 kmh 30.12 in1020.0 mb 0.00 in0.0 mm 0.00 in0.0 mm 0.00 in0.0 mm
09:24 AM 59.4°F15.2°C 32.4°F0.2°C 36% 6.0 mph SW9.7 kmh SW 6.0 mph9.7 kmh 30.12 in1020.0 mb 0.00 in0.0 mm 0.00 in0.0 mm 0.00 in0.0 mm
09:29 AM 59.9°F15.5°C 32.9°F0.5°C 36% 6.0 mph SW9.7 kmh SW 6.0 mph9.7 kmh 30.12 in1020.0 mb 0.00 in0.0 mm 0.00 in0.0 mm 0.00 in0.0 mm
09:34 AM 60.4°F15.8°C 33.4°F0.8°C 36% 6.0 mph SW9.7 kmh SW 6.0 mph9.7 kmh 30.12 in1020.0 mb 0.00 in0.0 mm 0.00 in0.0 mm 0.00 in0.0 mm
09:39 AM 60.8°F16.0°C 33.0°F0.6°C 35% 1.1 mph WSW1.8 kmh WSW 6.0 mph9.7 kmh 30.12 in1020.0 mb 0.00 in0.0 mm 0.00 in0.0 mm 0.00 in0.0 mm
09:45 AM 61.2°F16.2°C 33.3°F0.7°C 35% Calm Calm 2.0 mph3.2 kmh 30.12 in1020.0 mb 0.00 in0.0 mm 0.00 in0.0 mm 0.00 in0.0 mm
09:50 AM 61.7°F16.5°C 34.5°F1.4°C 36% 3.6 mph NE5.8 kmh NE 3.6 mph5.8 kmh 30.12 in1020.0 mb 0.00 in0.0 mm 0.00 in0.0 mm 0.00 in0.0 mm
09:55 AM 62.1°F16.7°C 34.1°F1.2°C 35% 3.6 mph NE5.8 kmh NE 3.6 mph5.8 kmh 30.12 in1020.0 mb 0.00 in0.0 mm 0.00 in0.0 mm 0.00 in0.0 mm
09:59 AM 62.4°F16.9°C 34.4°F1.3°C 35% 3.6 mph NE5.8 kmh NE 3.6 mph5.8 kmh 30.12 in1020.0 mb 0.00 in0.0 mm 0.00 in0.0 mm 0.00 in0.0 mm
10:04 AM 62.6°F17.0°C 34.6°F1.4°C 35% 3.6 mph NE5.8 kmh NE 3.6 mph5.8 kmh 30.12 in1020.0 mb 0.00 in0.0 mm 0.00 in0.0 mm 0.00 in0.0 mm
10:09 AM 63.0°F17.2°C 34.9°F1.6°C 35% 3.6 mph NE5.8 kmh NE 3.6 mph5.8 kmh 30.12 in1020.0 mb 0.00 in0.0 mm 0.00 in0.0 mm 0.00 in0.0 mm
10:14 AM 63.5°F17.5°C 35.4°F1.9°C 35% 3.8 mph NE6.1 kmh NE 3.8 mph6.1 kmh 30.12 in1020.0 mb 0.00 in0.0 mm 0.00 in0.0 mm 0.00 in0.0 mm
10:19 AM 64.0°F17.8°C 35.1°F1.7°C 34% 3.8 mph NE6.1 kmh NE 3.8 mph6.1 kmh 30.12 in1020.0 mb 0.00 in0.0 mm 0.00 in0.0 mm 0.00 in0.0 mm
10:23 AM 64.0°F17.8°C 35.1°F1.7°C 34% 3.8 mph NE6.1 kmh NE 3.8 mph6.1 kmh 30.12 in1020.0 mb 0.00 in0.0 mm 0.00 in0.0 mm 0.00 in0.0 mm
10:29 AM 64.6°F18.1°C 34.9°F1.6°C 33% 3.8 mph NE6.1 kmh NE 3.8 mph6.1 kmh 30.12 in1020.0 mb 0.00 in0.0 mm 0.00 in0.0 mm 0.00 in0.0 mm
10:34 AM 65.3°F18.5°C 35.5°F1.9°C 33% 3.8 mph NE6.1 kmh NE 3.8 mph6.1 kmh 30.12 in1020.0 mb 0.00 in0.0 mm 0.00 in0.0 mm 0.00 in0.0 mm
10:39 AM 65.5°F18.6°C 35.6°F2.0°C 33% 3.8 mph NE6.1 kmh NE 3.8 mph6.1 kmh 30.09 in1019.0 mb 0.00 in0.0 mm 0.00 in0.0 mm 0.00 in0.0 mm
10:45 AM 65.8°F18.8°C 36.0°F2.2°C 33% 3.8 mph NE6.1 kmh NE 3.8 mph6.1 kmh 30.09 in1019.0 mb 0.00 in0.0 mm 0.00 in0.0 mm 0.00 in0.0 mm
10:50 AM 66.2°F19.0°C 36.3°F2.4°C 33% 3.8 mph NE6.1 kmh NE 3.8 mph6.1 kmh 30.09 in1019.0 mb 0.00 in0.0 mm 0.00 in0.0 mm 0.00 in0.0 mm
10:54 AM 66.6°F19.2°C 36.6°F2.6°C 33% 3.8 mph NE6.1 kmh NE 3.8 mph6.1 kmh 30.09 in1019.0 mb 0.00 in0.0 mm 0.00 in0.0 mm 0.00 in0.0 mm
10:59 AM 67.1°F19.5°C 36.3°F2.4°C 32% 3.8 mph NE6.1 kmh NE 3.8 mph6.1 kmh 30.09 in1019.0 mb 0.00 in0.0 mm 0.00 in0.0 mm 0.00 in0.0 mm
11:04 AM 67.5°F19.7°C 35.0°F1.7°C 30% 3.8 mph NE6.1 kmh NE 3.8 mph6.1 kmh 30.09 in1019.0 mb 0.00 in0.0 mm 0.00 in0.0 mm 0.00 in0.0 mm
11:09 AM 67.6°F19.8°C 34.3°F1.3°C 29% 3.8 mph NE6.1 kmh NE 3.8 mph6.1 kmh 30.09 in1019.0 mb 0.00 in0.0 mm 0.00 in0.0 mm 0.00 in0.0 mm
11:14 AM 68.0°F20.0°C 33.7°F0.9°C 28% 3.8 mph NE6.1 kmh NE 3.8 mph6.1 kmh 30.09 in1019.0 mb 0.00 in0.0 mm 0.00 in0.0 mm 0.00 in0.0 mm
11:19 AM 68.4°F20.2°C 34.0°F1.1°C 28% 3.8 mph NE6.1 kmh NE 3.8 mph6.1 kmh 30.09 in1019.0 mb 0.00 in0.0 mm 0.00 in0.0 mm 0.00 in0.0 mm
11:24 AM 68.7°F20.4°C 32.5°F0.3°C 26% 3.8 mph NE6.1 kmh NE 3.8 mph6.1 kmh 30.09 in1019.0 mb 0.00 in0.0 mm 0.00 in0.0 mm 0.00 in0.0 mm
11:29 AM 69.3°F20.7°C 34.8°F1.6°C 28% 3.8 mph NE6.1 kmh NE 3.8 mph6.1 kmh 30.09 in1019.0 mb 0.00 in0.0 mm 0.00 in0.0 mm 0.00 in0.0 mm
11:34 AM 69.6°F20.9°C 32.3°F0.2°C 25% 3.8 mph NE6.1 kmh NE 3.8 mph6.1 kmh 30.09 in1019.0 mb 0.00 in0.0 mm 0.00 in0.0 mm 0.00 in0.0 mm
11:39 AM 70.0°F21.1°C 32.6°F0.3°C 25% 8.1 mph W13.0 kmh W 8.1 mph13.0 kmh 30.09 in1019.0 mb 0.00 in0.0 mm 0.00 in0.0 mm 0.00 in0.0 mm
11:45 AM 70.5°F21.4°C 33.0°F0.6°C 25% 8.1 mph W13.0 kmh W 8.1 mph13.0 kmh 30.09 in1019.0 mb 0.00 in0.0 mm 0.00 in0.0 mm 0.00 in0.0 mm
11:50 AM 71.1°F21.7°C 33.5°F0.8°C 25% 8.1 mph W13.0 kmh W 8.1 mph13.0 kmh 30.09 in1019.0 mb 0.00 in0.0 mm 0.00 in0.0 mm 0.00 in0.0 mm
11:55 AM 71.6°F22.0°C 32.9°F0.5°C 24% 8.1 mph W13.0 kmh W 8.1 mph13.0 kmh 30.09 in1019.0 mb 0.00 in0.0 mm 0.00 in0.0 mm 0.00 in0.0 mm
11:59 AM 71.8°F22.1°C 33.1°F0.6°C 24% 5.4 mph NE8.7 kmh NE 8.1 mph13.0 kmh 30.09 in1019.0 mb 0.00 in0.0 mm 0.00 in0.0 mm 0.00 in0.0 mm
12:04 PM 71.6°F22.0°C 31.9°F-0.1°C 23% 5.4 mph WSW8.7 kmh WSW 8.1 mph13.0 kmh 30.09 in1019.0 mb 0.00 in0.0 mm 0.00 in0.0 mm 0.00 in0.0 mm
12:09 PM 72.5°F22.5°C 32.6°F0.3°C 23% 4.0 mph WSW6.4 kmh WSW 8.1 mph13.0 kmh 30.06 in1017.9 mb 0.00 in0.0 mm 0.00 in0.0 mm 0.00 in0.0 mm
12:14 PM 73.0°F22.8°C 33.1°F0.6°C 23% 5.8 mph W9.3 kmh W 5.8 mph9.3 kmh 30.06 in1017.9 mb 0.00 in0.0 mm 0.00 in0.0 mm 0.00 in0.0 mm
12:19 PM 73.0°F22.8°C 33.1°F0.6°C 23% 2.7 mph SSW4.3 kmh SSW 5.8 mph9.3 kmh 30.06 in1017.9 mb 0.00 in0.0 mm 0.00 in0.0 mm 0.00 in0.0 mm
12:24 PM 73.0°F22.8°C 32.0°F0.0°C 22% 2.7 mph SSW4.3 kmh SSW 2.7 mph4.3 kmh 30.06 in1017.9 mb 0.00 in0.0 mm 0.00 in0.0 mm 0.00 in0.0 mm
12:29 PM 73.9°F23.3°C 31.6°F-0.2°C 21% 2.7 mph SSW4.3 kmh SSW 2.7 mph4.3 kmh 30.06 in1017.9 mb 0.00 in0.0 mm 0.00 in0.0 mm 0.00 in0.0 mm
12:34 PM 75.4°F24.1°C 33.9°F1.1°C 22% 2.7 mph SSW4.3 kmh SSW 2.7 mph4.3 kmh 30.06 in1017.9 mb 0.00 in0.0 mm 0.00 in0.0 mm 0.00 in0.0 mm
12:39 PM 75.9°F24.4°C 33.2°F0.7°C 21% 4.5 mph WSW7.2 kmh WSW 4.5 mph7.2 kmh 30.06 in1017.9 mb 0.00 in0.0 mm 0.00 in0.0 mm 0.00 in0.0 mm
12:45 PM 76.8°F24.9°C 34.0°F1.1°C 21% 4.5 mph WSW7.2 kmh WSW 4.5 mph7.2 kmh 30.06 in1017.9 mb 0.00 in0.0 mm 0.00 in0.0 mm 0.00 in0.0 mm
12:50 PM 76.3°F24.6°C 0.4°F-17.6°C 5% 4.3 mph NW6.9 kmh NW 4.3 mph6.9 kmh 30.06 in1017.9 mb 0.00 in0.0 mm 0.00 in0.0 mm 0.00 in0.0 mm
12:55 PM 76.5°F24.7°C 0.6°F-17.4°C 5% 4.3 mph NW6.9 kmh NW 4.3 mph6.9 kmh 30.06 in1017.9 mb 0.00 in0.0 mm 0.00 in0.0 mm 0.00 in0.0 mm
01:00 PM 76.5°F24.7°C 10.8°F-11.8°C 8% 4.3 mph NW6.9 kmh NW 4.3 mph6.9 kmh 30.06 in1017.9 mb 0.00 in0.0 mm 0.00 in0.0 mm 0.00 in0.0 mm
01:04 PM 75.7°F24.3°C -10.5°F-23.6°C 3% 4.3 mph NW6.9 kmh NW 4.3 mph6.9 kmh 30.06 in1017.9 mb 0.00 in0.0 mm 0.00 in0.0 mm 0.00 in0.0 mm
01:09 PM 77.5°F25.3°C 16.7°F-8.5°C 10% 4.3 mph NW6.9 kmh NW 4.3 mph6.9 kmh 30.06 in1017.9 mb 0.00 in0.0 mm 0.00 in0.0 mm 0.00 in0.0 mm
01:14 PM 77.9°F25.5°C 11.9°F-11.2°C 8% 4.3 mph NW6.9 kmh NW 4.3 mph6.9 kmh 30.06 in1017.9 mb 0.00 in0.0 mm 0.00 in0.0 mm 0.00 in0.0 mm
01:19 PM 78.3°F25.7°C -16.9°F-27.2°C 2% Calm Calm 4.3 mph6.9 kmh 30.06 in1017.9 mb 0.00 in0.0 mm 0.00 in0.0 mm 0.00 in0.0 mm
01:24 PM 78.4°F25.8°C -16.8°F-27.1°C 2% 3.6 mph WSW5.8 kmh WSW 3.6 mph5.8 kmh 30.06 in1017.9 mb 0.00 in0.0 mm 0.00 in0.0 mm 0.00 in0.0 mm
01:29 PM 79.0°F26.1°C -16.5°F-26.9°C 2% 3.6 mph WSW5.8 kmh WSW 3.6 mph5.8 kmh 30.06 in1017.9 mb 0.00 in0.0 mm 0.00 in0.0 mm 0.00 in0.0 mm
01:34 PM 79.7°F26.5°C -16.0°F-26.7°C 2% 3.6 mph WSW5.8 kmh WSW 3.6 mph5.8 kmh 30.06 in1017.9 mb 0.00 in0.0 mm 0.00 in0.0 mm 0.00 in0.0 mm
01:39 PM 79.7°F26.5°C -16.0°F-26.7°C 2% 3.6 mph WSW5.8 kmh WSW 3.6 mph5.8 kmh 30.06 in1017.9 mb 0.00 in0.0 mm 0.00 in0.0 mm 0.00 in0.0 mm
01:44 PM 79.7°F26.5°C -16.0°F-26.7°C 2% 3.6 mph WSW5.8 kmh WSW 3.6 mph5.8 kmh 30.06 in1017.9 mb 0.00 in0.0 mm 0.00 in0.0 mm 0.00 in0.0 mm
01:50 PM 79.7°F26.5°C -16.0°F-26.7°C 2% 3.6 mph WSW5.8 kmh WSW 3.6 mph5.8 kmh 30.06 in1017.9 mb 0.00 in0.0 mm 0.00 in0.0 mm 0.00 in0.0 mm
01:55 PM 79.5°F26.4°C -16.1°F-26.7°C 2% 2.7 mph W4.3 kmh W 3.6 mph5.8 kmh 30.03 in1016.9 mb 0.00 in0.0 mm 0.00 in0.0 mm 0.00 in0.0 mm
02:00 PM 79.7°F26.5°C -16.0°F-26.7°C 2% 3.4 mph W5.5 kmh W 3.4 mph5.5 kmh 30.03 in1016.9 mb 0.00 in0.0 mm 0.00 in0.0 mm 0.00 in0.0 mm
02:04 PM 79.9°F26.6°C -15.9°F-26.6°C 2% 2.0 mph WSW3.2 kmh WSW 4.0 mph6.4 kmh 30.03 in1016.9 mb 0.00 in0.0 mm 0.00 in0.0 mm 0.00 in0.0 mm
02:09 PM 80.2°F26.8°C -15.6°F-26.4°C 2% 2.0 mph WSW3.2 kmh WSW 2.0 mph3.2 kmh 30.03 in1016.9 mb 0.00 in0.0 mm 0.00 in0.0 mm 0.00 in0.0 mm
02:14 PM 79.7°F26.5°C -16.0°F-26.7°C 2% 2.0 mph WSW3.2 kmh WSW 2.0 mph3.2 kmh 30.03 in1016.9 mb 0.00 in0.0 mm 0.00 in0.0 mm 0.00 in0.0 mm
02:19 PM 80.2°F26.8°C -15.6°F-26.4°C 2% 2.0 mph W3.2 kmh W 2.0 mph3.2 kmh 30.03 in1016.9 mb 0.00 in0.0 mm 0.00 in0.0 mm 0.00 in0.0 mm
02:24 PM 79.9°F26.6°C -15.9°F-26.6°C 2% 2.2 mph W3.5 kmh W 2.2 mph3.5 kmh 30.03 in1016.9 mb 0.00 in0.0 mm 0.00 in0.0 mm 0.00 in0.0 mm
02:29 PM 79.2°F26.2°C -16.3°F-26.8°C 2% 4.3 mph WSW6.9 kmh WSW 4.3 mph6.9 kmh 30.03 in1016.9 mb 0.00 in0.0 mm 0.00 in0.0 mm 0.00 in0.0 mm
02:33 PM 79.5°F26.4°C -16.1°F-26.7°C 2% 4.3 mph WSW6.9 kmh WSW 4.3 mph6.9 kmh 30.03 in1016.9 mb 0.00 in0.0 mm 0.00 in0.0 mm 0.00 in0.0 mm
02:39 PM 79.5°F26.4°C -16.1°F-26.7°C 2% 4.3 mph WSW6.9 kmh WSW 4.3 mph6.9 kmh 30.03 in1016.9 mb 0.00 in0.0 mm 0.00 in0.0 mm 0.00 in0.0 mm
02:44 PM 79.7°F26.5°C -16.0°F-26.7°C 2% 2.7 mph W4.3 kmh W 4.3 mph6.9 kmh 30.03 in1016.9 mb 0.00 in0.0 mm 0.00 in0.0 mm 0.00 in0.0 mm
02:50 PM 79.5°F26.4°C -16.1°F-26.7°C 2% 2.7 mph W4.3 kmh W 2.7 mph4.3 kmh 30.03 in1016.9 mb 0.00 in0.0 mm 0.00 in0.0 mm 0.00 in0.0 mm
02:55 PM 79.5°F26.4°C -16.1°F-26.7°C 2% 2.7 mph W4.3 kmh W 2.7 mph4.3 kmh 30.03 in1016.9 mb 0.00 in0.0 mm 0.00 in0.0 mm 0.00 in0.0 mm
03:00 PM 79.7°F26.5°C -16.0°F-26.7°C 2% 3.1 mph W5.0 kmh W 3.1 mph5.0 kmh 30.03 in1016.9 mb 0.00 in0.0 mm 0.00 in0.0 mm 0.00 in0.0 mm
03:04 PM 79.3°F26.3°C -16.2°F-26.8°C 2% 5.8 mph W9.3 kmh W 5.8 mph9.3 kmh 30.03 in1016.9 mb 0.00 in0.0 mm 0.00 in0.0 mm 0.00 in0.0 mm
03:09 PM 79.2°F26.2°C -16.3°F-26.8°C 2% 5.4 mph W8.7 kmh W 5.8 mph9.3 kmh 30.03 in1016.9 mb 0.00 in0.0 mm 0.00 in0.0 mm 0.00 in0.0 mm
03:14 PM 79.7°F26.5°C -16.0°F-26.7°C 2% 2.0 mph SW3.2 kmh SW 2.7 mph4.3 kmh 30.03 in1016.9 mb 0.00 in0.0 mm 0.00 in0.0 mm 0.00 in0.0 mm
03:19 PM 79.9°F26.6°C -15.9°F-26.6°C 2% 5.4 mph W8.7 kmh W 5.4 mph8.7 kmh 30.03 in1016.9 mb 0.00 in0.0 mm 0.00 in0.0 mm 0.00 in0.0 mm
03:24 PM 79.9°F26.6°C -15.9°F-26.6°C 2% 5.4 mph W8.7 kmh W 5.4 mph8.7 kmh 30.03 in1016.9 mb 0.00 in0.0 mm 0.00 in0.0 mm 0.00 in0.0 mm
03:29 PM 80.1°F26.7°C -15.8°F-26.6°C 2% 4.7 mph W7.6 kmh W 5.4 mph8.7 kmh 30.03 in1016.9 mb 0.00 in0.0 mm 0.00 in0.0 mm 0.00 in0.0 mm
03:34 PM 79.7°F26.5°C -16.0°F-26.7°C 2% 4.7 mph W7.6 kmh W 4.7 mph7.6 kmh 30.03 in1016.9 mb 0.00 in0.0 mm 0.00 in0.0 mm 0.00 in0.0 mm
03:39 PM 78.3°F25.7°C -16.9°F-27.2°C 2% 4.7 mph W7.6 kmh W 4.7 mph7.6 kmh 30.03 in1016.9 mb 0.00 in0.0 mm 0.00 in0.0 mm 0.00 in0.0 mm
03:44 PM 77.4°F25.2°C -17.5°F-27.5°C 2% 3.6 mph SW5.8 kmh SW 4.7 mph7.6 kmh 30.03 in1016.9 mb 0.00 in0.0 mm 0.00 in0.0 mm 0.00 in0.0 mm
03:50 PM 76.8°F24.9°C -17.8°F-27.7°C 2% 4.9 mph WSW7.9 kmh WSW 4.9 mph7.9 kmh 30.03 in1016.9 mb 0.00 in0.0 mm 0.00 in0.0 mm 0.00 in0.0 mm
03:55 PM 76.3°F24.6°C -18.2°F-27.9°C 2% 2.0 mph NE3.2 kmh NE 4.9 mph7.9 kmh 30.03 in1016.9 mb 0.00 in0.0 mm 0.00 in0.0 mm 0.00 in0.0 mm
04:00 PM 75.9°F24.4°C -18.4°F-28.0°C 2% 1.6 mph W2.6 kmh W 4.0 mph6.4 kmh 30.03 in1016.9 mb 0.00 in0.0 mm 0.00 in0.0 mm 0.00 in0.0 mm
04:04 PM 75.4°F24.1°C -18.8°F-28.2°C 2% 4.7 mph W7.6 kmh W 4.7 mph7.6 kmh 30.03 in1016.9 mb 0.00 in0.0 mm 0.00 in0.0 mm 0.00 in0.0 mm
04:09 PM 75.2°F24.0°C -18.9°F-28.3°C 2% 5.6 mph W9.0 kmh W 5.8 mph9.3 kmh 30.03 in1016.9 mb 0.00 in0.0 mm 0.00 in0.0 mm 0.00 in0.0 mm
04:14 PM 75.2°F24.0°C -18.9°F-28.3°C 2% 2.2 mph SW3.5 kmh SW 2.5 mph4.0 kmh 30.03 in1016.9 mb 0.00 in0.0 mm 0.00 in0.0 mm 0.00 in0.0 mm
04:19 PM 75.0°F23.9°C -19.0°F-28.3°C 2% 2.2 mph SW3.5 kmh SW 2.2 mph3.5 kmh 30.03 in1016.9 mb 0.00 in0.0 mm 0.00 in0.0 mm 0.00 in0.0 mm
04:24 PM 75.0°F23.9°C -19.0°F-28.3°C 2% 2.9 mph NE4.7 kmh NE 3.6 mph5.8 kmh 30.03 in1016.9 mb 0.00 in0.0 mm 0.00 in0.0 mm 0.00 in0.0 mm
04:29 PM 74.8°F23.8°C -19.1°F-28.4°C 2% 1.1 mph W1.8 kmh W 2.9 mph4.7 kmh 30.03 in1016.9 mb 0.00 in0.0 mm 0.00 in0.0 mm 0.00 in0.0 mm
04:34 PM 74.7°F23.7°C -19.2°F-28.4°C 2% 4.0 mph W6.4 kmh W 4.0 mph6.4 kmh 30.03 in1016.9 mb 0.00 in0.0 mm 0.00 in0.0 mm 0.00 in0.0 mm
04:39 PM 74.5°F23.6°C -19.3°F-28.5°C 2% 3.8 mph W6.1 kmh W 4.0 mph6.4 kmh 30.03 in1016.9 mb 0.00 in0.0 mm 0.00 in0.0 mm 0.00 in0.0 mm
04:44 PM 74.5°F23.6°C -19.3°F-28.5°C 2% 3.8 mph W6.1 kmh W 3.8 mph6.1 kmh 30.03 in1016.9 mb 0.00 in0.0 mm 0.00 in0.0 mm 0.00 in0.0 mm
04:50 PM 74.5°F23.6°C -19.3°F-28.5°C 2% 1.6 mph W2.6 kmh W 3.8 mph6.1 kmh 30.03 in1016.9 mb 0.00 in0.0 mm 0.00 in0.0 mm 0.00 in0.0 mm
04:55 PM 74.5°F23.6°C -19.3°F-28.5°C 2% 3.8 mph W6.1 kmh W 3.8 mph6.1 kmh 30.03 in1016.9 mb 0.00 in0.0 mm 0.00 in0.0 mm 0.00 in0.0 mm
05:00 PM 74.5°F23.6°C -19.3°F-28.5°C 2% 1.1 mph NW1.8 kmh NW 3.8 mph6.1 kmh 30.03 in1016.9 mb 0.00 in0.0 mm 0.00 in0.0 mm 0.00 in0.0 mm
05:04 PM 74.3°F23.5°C -19.5°F-28.6°C 2% 1.3 mph WSW2.1 kmh WSW 7.6 mph12.2 kmh 30.03 in1016.9 mb 0.00 in0.0 mm 0.00 in0.0 mm 0.00 in0.0 mm
05:09 PM 74.3°F23.5°C -19.5°F-28.6°C 2% 1.1 mph NW1.8 kmh NW 3.6 mph5.8 kmh 30.03 in1016.9 mb 0.00 in0.0 mm 0.00 in0.0 mm 0.00 in0.0 mm
05:14 PM 73.9°F23.3°C 16.2°F-8.8°C 11% 1.3 mph NW2.1 kmh NW 1.3 mph2.1 kmh 30.03 in1016.9 mb 0.00 in0.0 mm 0.00 in0.0 mm 0.00 in0.0 mm
05:19 PM 73.8°F23.2°C 31.4°F-0.3°C 21% 1.3 mph NW2.1 kmh NW 1.3 mph2.1 kmh 30.03 in1016.9 mb 0.00 in0.0 mm 0.00 in0.0 mm 0.00 in0.0 mm
05:24 PM 73.8°F23.2°C 27.7°F-2.4°C 18% 1.3 mph NW2.1 kmh NW 1.3 mph2.1 kmh 30.03 in1016.9 mb 0.00 in0.0 mm 0.00 in0.0 mm 0.00 in0.0 mm
05:29 PM 73.6°F23.1°C 31.3°F-0.4°C 21% 1.3 mph NW2.1 kmh NW 1.3 mph2.1 kmh 30.03 in1016.9 mb 0.00 in0.0 mm 0.00 in0.0 mm 0.00 in0.0 mm
05:34 PM 73.4°F23.0°C 32.3°F0.2°C 22% 2.2 mph NW3.5 kmh NW 2.2 mph3.5 kmh 30.03 in1016.9 mb 0.00 in0.0 mm 0.00 in0.0 mm 0.00 in0.0 mm
05:39 PM 73.2°F22.9°C 32.1°F0.1°C 22% 2.2 mph NW3.5 kmh NW 2.2 mph3.5 kmh 30.03 in1016.9 mb 0.00 in0.0 mm 0.00 in0.0 mm 0.00 in0.0 mm
05:44 PM 73.0°F22.8°C 33.1°F0.6°C 23% 2.5 mph W4.0 kmh W 2.5 mph4.0 kmh 30.03 in1016.9 mb 0.00 in0.0 mm 0.00 in0.0 mm 0.00 in0.0 mm
05:50 PM 73.0°F22.8°C 33.1°F0.6°C 23% 3.8 mph WSW6.1 kmh WSW 3.8 mph6.1 kmh 30.03 in1016.9 mb 0.00 in0.0 mm 0.00 in0.0 mm 0.00 in0.0 mm
05:55 PM 72.9°F22.7°C 34.0°F1.1°C 24% 2.9 mph W4.7 kmh W 3.8 mph6.1 kmh 30.03 in1016.9 mb 0.00 in0.0 mm 0.00 in0.0 mm 0.00 in0.0 mm
06:00 PM 72.9°F22.7°C 34.0°F1.1°C 24% 3.6 mph W5.8 kmh W 3.8 mph6.1 kmh 30.03 in1016.9 mb 0.00 in0.0 mm 0.00 in0.0 mm 0.00 in0.0 mm
06:04 PM 72.9°F22.7°C 34.0°F1.1°C 24% 3.4 mph W5.5 kmh W 3.6 mph5.8 kmh 30.03 in1016.9 mb 0.00 in0.0 mm 0.00 in0.0 mm 0.00 in0.0 mm
06:09 PM 72.7°F22.6°C 33.8°F1.0°C 24% 2.7 mph W4.3 kmh W 3.4 mph5.5 kmh 30.03 in1016.9 mb 0.00 in0.0 mm 0.00 in0.0 mm 0.00 in0.0 mm
06:14 PM 72.5°F22.5°C 33.7°F0.9°C 24% 2.7 mph W4.3 kmh W 2.7 mph4.3 kmh 30.03 in1016.9 mb 0.00 in0.0 mm 0.00 in0.0 mm 0.00 in0.0 mm
06:19 PM 72.5°F22.5°C 34.7°F1.5°C 25% 2.7 mph W4.3 kmh W 2.7 mph4.3 kmh 30.03 in1016.9 mb 0.00 in0.0 mm 0.00 in0.0 mm 0.00 in0.0 mm
06:24 PM 72.5°F22.5°C 34.7°F1.5°C 25% Calm Calm -- 30.03 in1016.9 mb 0.00 in0.0 mm 0.00 in0.0 mm 0.00 in0.0 mm
06:29 PM 72.3°F22.4°C 35.5°F1.9°C 26% 1.6 mph N2.6 kmh N 1.6 mph2.6 kmh 30.03 in1016.9 mb 0.00 in0.0 mm 0.00 in0.0 mm 0.00 in0.0 mm
06:34 PM 72.0°F22.2°C 36.2°F2.3°C 27% 2.7 mph NE4.3 kmh NE 2.7 mph4.3 kmh 30.03 in1016.9 mb 0.00 in0.0 mm 0.00 in0.0 mm 0.00 in0.0 mm
06:39 PM 71.8°F22.1°C 37.0°F2.8°C 28% 2.7 mph NE4.3 kmh NE 2.7 mph4.3 kmh 30.03 in1016.9 mb 0.00 in0.0 mm 0.00 in0.0 mm 0.00 in0.0 mm
06:44 PM 71.4°F21.9°C 39.2°F4.0°C 31% 2.9 mph W4.7 kmh W 2.9 mph4.7 kmh 30.03 in1016.9 mb 0.00 in0.0 mm 0.00 in0.0 mm 0.00 in0.0 mm
06:49 PM 71.2°F21.8°C 39.1°F3.9°C 31% 1.6 mph ESE2.6 kmh ESE 1.6 mph2.6 kmh 30.03 in1016.9 mb 0.00 in0.0 mm 0.00 in0.0 mm 0.00 in0.0 mm
06:55 PM 70.9°F21.6°C 39.6°F4.2°C 32% 0.9 mph WNW1.4 kmh WNW 1.6 mph2.6 kmh 30.03 in1016.9 mb 0.00 in0.0 mm 0.00 in0.0 mm 0.00 in0.0 mm
07:00 PM 70.3°F21.3°C 39.1°F3.9°C 32% 0.9 mph WNW1.4 kmh WNW 0.9 mph1.4 kmh 30.03 in1016.9 mb 0.00 in0.0 mm 0.00 in0.0 mm 0.00 in0.0 mm
07:04 PM 70.2°F21.2°C 39.0°F3.9°C 32% 0.9 mph WNW1.4 kmh WNW 0.9 mph1.4 kmh 30.03 in1016.9 mb 0.00 in0.0 mm 0.00 in0.0 mm 0.00 in0.0 mm
07:10 PM 70.0°F21.1°C 38.8°F3.8°C 32% 2.0 mph NNE3.2 kmh NNE 2.0 mph3.2 kmh 30.06 in1017.9 mb 0.00 in0.0 mm 0.00 in0.0 mm 0.00 in0.0 mm
07:14 PM 69.8°F21.0°C 39.4°F4.1°C 33% Calm Calm 2.0 mph3.2 kmh 30.06 in1017.9 mb 0.00 in0.0 mm 0.00 in0.0 mm 0.00 in0.0 mm
07:19 PM 69.4°F20.8°C 39.9°F4.4°C 34% 3.6 mph WSW5.8 kmh WSW 3.6 mph5.8 kmh 30.06 in1017.9 mb 0.00 in0.0 mm 0.00 in0.0 mm 0.00 in0.0 mm
07:24 PM 68.9°F20.5°C 39.4°F4.1°C 34% 3.6 mph WSW5.8 kmh WSW 3.6 mph5.8 kmh 30.06 in1017.9 mb 0.00 in0.0 mm 0.00 in0.0 mm 0.00 in0.0 mm
07:29 PM 68.4°F20.2°C 40.4°F4.7°C 36% 3.6 mph WSW5.8 kmh WSW 3.6 mph5.8 kmh 30.06 in1017.9 mb 0.00 in0.0 mm 0.00 in0.0 mm 0.00 in0.0 mm
07:34 PM 68.0°F20.0°C 40.1°F4.5°C 36% Calm Calm 3.6 mph5.8 kmh 30.06 in1017.9 mb 0.00 in0.0 mm 0.00 in0.0 mm 0.00 in0.0 mm
07:39 PM 67.8°F19.9°C 42.0°F5.6°C 39% 2.0 mph SSW3.2 kmh SSW 2.0 mph3.2 kmh 30.09 in1019.0 mb 0.00 in0.0 mm 0.00 in0.0 mm 0.00 in0.0 mm
07:44 PM 67.6°F19.8°C 44.4°F6.9°C 43% 1.6 mph WSW2.6 kmh WSW 2.0 mph3.2 kmh 30.09 in1019.0 mb 0.00 in0.0 mm 0.00 in0.0 mm 0.00 in0.0 mm
07:48 PM 67.1°F19.5°C 45.1°F7.3°C 45% 1.6 mph WSW2.6 kmh WSW 1.6 mph2.6 kmh 30.09 in1019.0 mb 0.00 in0.0 mm 0.00 in0.0 mm 0.00 in0.0 mm
07:53 PM 66.9°F19.4°C 44.9°F7.2°C 45% 1.3 mph ESE2.1 kmh ESE 1.3 mph2.1 kmh 30.09 in1019.0 mb 0.00 in0.0 mm 0.00 in0.0 mm 0.00 in0.0 mm
08:00 PM 66.4°F19.1°C 45.6°F7.6°C 47% 1.3 mph S2.1 kmh S 1.3 mph2.1 kmh 30.09 in1019.0 mb 0.00 in0.0 mm 0.00 in0.0 mm 0.00 in0.0 mm
08:05 PM 66.0°F18.9°C 45.2°F7.3°C 47% 1.6 mph SSW2.6 kmh SSW 3.4 mph5.5 kmh 30.09 in1019.0 mb 0.00 in0.0 mm 0.00 in0.0 mm 0.00 in0.0 mm
08:10 PM 65.8°F18.8°C 45.6°F7.6°C 48% 1.3 mph WSW2.1 kmh WSW 1.6 mph2.6 kmh 30.12 in1020.0 mb 0.00 in0.0 mm 0.00 in0.0 mm 0.00 in0.0 mm
08:14 PM 65.5°F18.6°C 45.8°F7.7°C 49% 1.3 mph WSW2.1 kmh WSW 1.3 mph2.1 kmh 30.12 in1020.0 mb 0.00 in0.0 mm 0.00 in0.0 mm 0.00 in0.0 mm
08:19 PM 65.1°F18.4°C 46.0°F7.8°C 50% 1.3 mph WSW2.1 kmh WSW 1.3 mph2.1 kmh 30.12 in1020.0 mb 0.00 in0.0 mm 0.00 in0.0 mm 0.00 in0.0 mm
08:24 PM 64.6°F18.1°C 46.6°F8.1°C 52% 1.1 mph SSE1.8 kmh SSE 2.9 mph4.7 kmh 30.12 in1020.0 mb 0.00 in0.0 mm 0.00 in0.0 mm 0.00 in0.0 mm
08:29 PM 64.2°F17.9°C 46.8°F8.2°C 53% 1.1 mph SSE1.8 kmh SSE 1.1 mph1.8 kmh 30.12 in1020.0 mb 0.00 in0.0 mm 0.00 in0.0 mm 0.00 in0.0 mm
08:34 PM 63.9°F17.7°C 46.9°F8.3°C 54% 1.1 mph SSE1.8 kmh SSE 1.1 mph1.8 kmh 30.12 in1020.0 mb 0.00 in0.0 mm 0.00 in0.0 mm 0.00 in0.0 mm
08:39 PM 63.9°F17.7°C 47.4°F8.6°C 55% 1.1 mph SSE1.8 kmh SSE 1.1 mph1.8 kmh 30.12 in1020.0 mb 0.00 in0.0 mm 0.00 in0.0 mm 0.00 in0.0 mm
08:44 PM 63.7°F17.6°C 47.2°F8.4°C 55% 3.4 mph W5.5 kmh W 3.4 mph5.5 kmh 30.12 in1020.0 mb 0.00 in0.0 mm 0.00 in0.0 mm 0.00 in0.0 mm
08:49 PM 63.5°F17.5°C 47.5°F8.6°C 56% 1.1 mph S1.8 kmh S 3.4 mph5.5 kmh 30.12 in1020.0 mb 0.00 in0.0 mm 0.00 in0.0 mm 0.00 in0.0 mm
08:53 PM 63.5°F17.5°C 47.5°F8.6°C 56% 1.6 mph E2.6 kmh E 1.6 mph2.6 kmh 30.12 in1020.0 mb 0.00 in0.0 mm 0.00 in0.0 mm 0.00 in0.0 mm
09:00 PM 63.1°F17.3°C 48.1°F8.9°C 58% 1.1 mph SSW1.8 kmh SSW 4.0 mph6.4 kmh 30.12 in1020.0 mb 0.00 in0.0 mm 0.00 in0.0 mm 0.00 in0.0 mm
09:05 PM 63.1°F17.3°C 48.6°F9.2°C 59% 1.6 mph ENE2.6 kmh ENE 4.3 mph6.9 kmh 30.12 in1020.0 mb 0.00 in0.0 mm 0.00 in0.0 mm 0.00 in0.0 mm
09:09 PM 62.8°F17.1°C 49.2°F9.6°C 61% 4.9 mph ESE7.9 kmh ESE 4.9 mph7.9 kmh 30.15 in1021.0 mb 0.00 in0.0 mm 0.00 in0.0 mm 0.00 in0.0 mm
09:14 PM 62.6°F17.0°C 49.8°F9.9°C 63% 4.0 mph NE6.4 kmh NE 4.9 mph7.9 kmh 30.15 in1021.0 mb 0.00 in0.0 mm 0.00 in0.0 mm 0.00 in0.0 mm
09:19 PM 62.4°F16.9°C 50.1°F10.1°C 64% 0.9 mph SE1.4 kmh SE 4.3 mph6.9 kmh 30.15 in1021.0 mb 0.00 in0.0 mm 0.00 in0.0 mm 0.00 in0.0 mm
09:24 PM 62.4°F16.9°C 50.1°F10.1°C 64% 1.1 mph SW1.8 kmh SW 3.4 mph5.5 kmh 30.15 in1021.0 mb 0.00 in0.0 mm 0.00 in0.0 mm 0.00 in0.0 mm
09:29 PM 62.2°F16.8°C 51.2°F10.7°C 67% 3.8 mph SW6.1 kmh SW 3.8 mph6.1 kmh 30.15 in1021.0 mb 0.00 in0.0 mm 0.00 in0.0 mm 0.00 in0.0 mm
09:34 PM 61.9°F16.6°C 51.6°F10.9°C 69% 4.7 mph WSW7.6 kmh WSW 5.6 mph9.0 kmh 30.15 in1021.0 mb 0.00 in0.0 mm 0.00 in0.0 mm 0.00 in0.0 mm
09:39 PM 61.7°F16.5°C 51.4°F10.8°C 69% 2.7 mph WSW4.3 kmh WSW 5.6 mph9.0 kmh 30.15 in1021.0 mb 0.00 in0.0 mm 0.00 in0.0 mm 0.00 in0.0 mm
09:44 PM 61.7°F16.5°C 52.2°F11.2°C 71% 3.4 mph NE5.5 kmh NE 3.4 mph5.5 kmh 30.15 in1021.0 mb 0.00 in0.0 mm 0.00 in0.0 mm 0.00 in0.0 mm
09:49 PM 61.5°F16.4°C 51.7°F10.9°C 70% 2.5 mph N4.0 kmh N 2.7 mph4.3 kmh 30.15 in1021.0 mb 0.00 in0.0 mm 0.00 in0.0 mm 0.00 in0.0 mm
09:54 PM 61.3°F16.3°C 51.9°F11.1°C 71% 3.1 mph NNE5.0 kmh NNE 6.0 mph9.7 kmh 30.15 in1021.0 mb 0.00 in0.0 mm 0.00 in0.0 mm 0.00 in0.0 mm
10:00 PM 61.3°F16.3°C 51.9°F11.1°C 71% 2.0 mph SSW3.2 kmh SSW 4.3 mph6.9 kmh 30.15 in1021.0 mb 0.00 in0.0 mm 0.00 in0.0 mm 0.00 in0.0 mm
10:05 PM 61.3°F16.3°C 51.9°F11.1°C 71% 1.3 mph SSW2.1 kmh SSW 2.5 mph4.0 kmh 30.15 in1021.0 mb 0.00 in0.0 mm 0.00 in0.0 mm 0.00 in0.0 mm
10:10 PM 61.3°F16.3°C 51.5°F10.8°C 70% 1.1 mph SSE1.8 kmh SSE 3.6 mph5.8 kmh 30.15 in1021.0 mb 0.00 in0.0 mm 0.00 in0.0 mm 0.00 in0.0 mm
10:13 PM 61.2°F16.2°C 51.7°F10.9°C 71% 2.9 mph S4.7 kmh S 2.9 mph4.7 kmh 30.15 in1021.0 mb 0.00 in0.0 mm 0.00 in0.0 mm 0.00 in0.0 mm
10:19 PM 61.2°F16.2°C 51.7°F10.9°C 71% 3.8 mph NE6.1 kmh NE 3.8 mph6.1 kmh 30.15 in1021.0 mb 0.00 in0.0 mm 0.00 in0.0 mm 0.00 in0.0 mm
10:23 PM 61.0°F16.1°C 51.5°F10.8°C 71% 2.0 mph SW3.2 kmh SW 2.5 mph4.0 kmh 30.15 in1021.0 mb 0.00 in0.0 mm 0.00 in0.0 mm 0.00 in0.0 mm
10:29 PM 61.0°F16.1°C 52.3°F11.3°C 73% 2.5 mph S4.0 kmh S 4.5 mph7.2 kmh 30.15 in1021.0 mb 0.00 in0.0 mm 0.00 in0.0 mm 0.00 in0.0 mm
10:34 PM 60.8°F16.0°C 51.7°F10.9°C 72% 2.0 mph N3.2 kmh N 4.9 mph7.9 kmh 30.15 in1021.0 mb 0.00 in0.0 mm 0.00 in0.0 mm 0.00 in0.0 mm
10:39 PM 60.8°F16.0°C 51.7°F10.9°C 72% 1.3 mph ESE2.1 kmh ESE 2.2 mph3.5 kmh 30.15 in1021.0 mb 0.00 in0.0 mm 0.00 in0.0 mm 0.00 in0.0 mm
10:44 PM 60.8°F16.0°C 51.4°F10.8°C 71% Calm Calm 2.7 mph4.3 kmh 30.15 in1021.0 mb 0.00 in0.0 mm 0.00 in0.0 mm 0.00 in0.0 mm
10:49 PM 60.8°F16.0°C 51.4°F10.8°C 71% Calm Calm -- 30.15 in1021.0 mb 0.00 in0.0 mm 0.00 in0.0 mm 0.00 in0.0 mm
10:54 PM 60.8°F16.0°C 51.4°F10.8°C 71% Calm Calm 0.9 mph1.4 kmh 30.15 in1021.0 mb 0.00 in0.0 mm 0.00 in0.0 mm 0.00 in0.0 mm
11:00 PM 60.8°F16.0°C 51.0°F10.6°C 70% 2.7 mph NE4.3 kmh NE 2.7 mph4.3 kmh 30.15 in1021.0 mb 0.00 in0.0 mm 0.00 in0.0 mm 0.00 in0.0 mm
11:05 PM 60.8°F16.0°C 51.0°F10.6°C 70% Calm Calm 2.7 mph4.3 kmh 30.15 in1021.0 mb 0.00 in0.0 mm 0.00 in0.0 mm 0.00 in0.0 mm
11:10 PM 60.6°F15.9°C 51.2°F10.7°C 71% Calm Calm 2.0 mph3.2 kmh 30.15 in1021.0 mb 0.00 in0.0 mm 0.00 in0.0 mm 0.00 in0.0 mm
11:14 PM 60.6°F15.9°C 51.2°F10.7°C 71% 1.3 mph NE2.1 kmh NE 1.3 mph2.1 kmh 30.15 in1021.0 mb 0.00 in0.0 mm 0.00 in0.0 mm 0.00 in0.0 mm
11:18 PM 60.6°F15.9°C 51.2°F10.7°C 71% Calm Calm 1.3 mph2.1 kmh 30.15 in1021.0 mb 0.00 in0.0 mm 0.00 in0.0 mm 0.00 in0.0 mm
11:24 PM 60.6°F15.9°C 50.8°F10.4°C 70% Calm Calm -- 30.15 in1021.0 mb 0.00 in0.0 mm 0.00 in0.0 mm 0.00 in0.0 mm
11:29 PM 60.4°F15.8°C 50.6°F10.3°C 70% Calm Calm -- 30.15 in1021.0 mb 0.00 in0.0 mm 0.00 in0.0 mm 0.00 in0.0 mm
11:34 PM 60.3°F15.7°C 50.1°F10.1°C 69% Calm Calm -- 30.15 in1021.0 mb 0.00 in0.0 mm 0.00 in0.0 mm 0.00 in0.0 mm
11:39 PM 60.1°F15.6°C 49.9°F9.9°C 69% Calm Calm -- 30.15 in1021.0 mb 0.00 in0.0 mm 0.00 in0.0 mm 0.00 in0.0 mm
11:44 PM 60.1°F15.6°C 50.3°F10.2°C 70% 1.3 mph NNE2.1 kmh NNE 1.3 mph2.1 kmh 30.15 in1021.0 mb 0.00 in0.0 mm 0.00 in0.0 mm 0.00 in0.0 mm
11:49 PM 60.1°F15.6°C 50.3°F10.2°C 70% 0.9 mph NNE1.4 kmh NNE 0.9 mph1.4 kmh 30.15 in1021.0 mb 0.00 in0.0 mm 0.00 in0.0 mm 0.00 in0.0 mm
11:54 PM 60.1°F15.6°C 50.3°F10.2°C 70% 2.0 mph NE3.2 kmh NE 2.2 mph3.5 kmh 30.18 in1022.0 mb 0.00 in0.0 mm 0.00 in0.0 mm 0.00 in0.0 mm